Time;durP1;ratioP1;P1;durP2;ratioP2;P2;SDS_P1;SDS_P2;PMS_P1;PMS_P2;Temp;Humidity;BMP_temperature;BMP_pressure;BME280_temperature;BME280_humidity;BME280_pressure;Samples;Min_cycle;Max_cycle;Signal;HPM_P1;HPM_P2
2022/10/06 00:01:35;;;;;;;14.20;1.58;;;;;;;8.83;100.00;100880.25;4848134;29;20558;-90
2022/10/06 00:04:03;;;;;;;16.60;2.33;;;;;;;8.85;100.00;100884.47;4849709;29;20123;-90
2022/10/06 00:06:32;;;;;;;20.80;2.63;;;;;;;8.85;100.00;100888.91;4858355;29;20580;-90
2022/10/06 00:09:02;;;;;;;20.98;1.90;;;;;;;8.85;100.00;100880.97;4861650;29;20090;-90
2022/10/06 00:11:31;;;;;;;14.98;2.25;;;;;;;8.84;100.00;100876.69;4826282;29;20077;-89
2022/10/06 00:14:01;;;;;;;14.35;2.50;;;;;;;8.80;100.00;100876.94;4852280;29;20475;-92
2022/10/06 00:16:31;;;;;;;11.27;2.28;;;;;;;8.83;100.00;100881.09;4834307;29;20045;-90
2022/10/06 00:19:00;;;;;;;16.83;1.92;;;;;;;8.84;100.00;100871.41;4849209;29;20069;-91
2022/10/06 00:21:28;;;;;;;17.77;2.40;;;;;;;8.80;100.00;100876.94;4856285;29;20541;-90
2022/10/06 00:23:55;;;;;;;18.17;2.78;;;;;;;8.85;100.00;100878.34;4865731;29;20037;-89
2022/10/06 00:26:23;;;;;;;16.95;2.08;;;;;;;8.81;100.00;100875.97;4854850;29;20391;-90
2022/10/06 00:28:52;;;;;;;9.65;1.77;;;;;;;8.84;100.00;100876.69;4850553;29;20110;-87
2022/10/06 00:31:19;;;;;;;12.95;2.30;;;;;;;8.79;100.00;100880.50;4847076;29;20033;-89
2022/10/06 00:33:48;;;;;;;16.27;2.47;;;;;;;8.80;100.00;100884.84;4853976;29;20124;-90
2022/10/06 00:36:16;;;;;;;18.65;2.67;;;;;;;8.84;100.00;100889.88;4835065;29;20036;-90
2022/10/06 00:38:46;;;;;;;20.40;2.30;;;;;;;8.88;100.00;100881.59;4863649;29;20048;-92
2022/10/06 00:41:17;;;;;;;18.38;2.22;;;;;;;8.90;100.00;100890.19;4878088;29;20034;-91
2022/10/06 00:43:55;;;;;;;17.33;2.88;;;;;;;8.94;100.00;100885.53;4861693;29;20041;-88
2022/10/06 00:46:56;;;;;;;16.55;2.47;;;;;;;8.93;100.00;100894.41;4832733;29;20038;-89
2022/10/06 00:49:35;;;;;;;16.88;2.88;;;;;;;8.98;100.00;100894.03;4810613;29;20049;-91
2022/10/06 00:52:10;;;;;;;27.33;2.42;;;;;;;8.99;100.00;100893.06;4876819;29;20037;-87
2022/10/06 00:54:41;;;;;;;18.08;2.67;;;;;;;8.99;100.00;100886.00;4851486;29;20034;-90
2022/10/06 00:57:12;;;;;;;14.35;2.25;;;;;;;9.01;100.00;100889.34;4836765;29;20068;-90
2022/10/06 00:59:42;;;;;;;17.65;2.50;;;;;;;9.04;100.00;100883.00;4841743;29;20553;-90
2022/10/06 01:02:14;;;;;;;18.80;2.63;;;;;;;9.05;100.00;100888.13;4831230;29;20046;-88
2022/10/06 01:04:46;;;;;;;13.95;2.08;;;;;;;9.06;100.00;100884.53;4849964;29;20460;-89
2022/10/06 01:07:19;;;;;;;21.23;2.80;;;;;;;9.06;100.00;100881.91;4849533;29;20108;-92
2022/10/06 01:09:49;;;;;;;19.30;2.50;;;;;;;9.08;100.00;100889.69;4862122;29;20052;-92
2022/10/06 01:12:20;;;;;;;17.23;2.28;;;;;;;9.12;100.00;100890.28;4829602;29;20068;-89
2022/10/06 01:14:51;;;;;;;14.65;2.25;;;;;;;9.17;100.00;100893.38;4847160;29;20033;-90
2022/10/06 01:17:32;;;;;;;15.57;2.47;;;;;;;9.23;100.00;100898.16;4855102;29;20101;-89
2022/10/06 01:20:07;;;;;;;16.20;3.10;;;;;;;9.25;100.00;100898.88;4842919;29;20037;-90
2022/10/06 01:22:39;;;;;;;13.90;2.38;;;;;;;9.29;100.00;100886.28;4835017;29;20057;-90
2022/10/06 01:25:12;;;;;;;13.85;2.67;;;;;;;9.35;100.00;100884.94;4861255;29;20495;-89
2022/10/06 01:27:52;;;;;;;18.70;3.08;;;;;;;9.38;100.00;100896.06;4859702;29;20034;-91
2022/10/06 01:30:36;;;;;;;19.40;2.55;;;;;;;9.42;100.00;100894.88;4849993;29;20478;-90
2022/10/06 01:33:04;;;;;;;15.43;2.08;;;;;;;9.41;100.00;100895.81;4867192;29;20057;-89
2022/10/06 01:35:34;;;;;;;18.60;2.83;;;;;;;9.46;100.00;100903.34;4860058;29;20049;-91
2022/10/06 01:38:02;;;;;;;17.17;2.75;;;;;;;9.49;100.00;100897.00;4839444;29;20041;-92
2022/10/06 01:40:31;;;;;;;21.50;2.85;;;;;;;9.51;100.00;100900.34;4866030;29;20494;-90
2022/10/06 01:43:01;;;;;;;17.13;3.08;;;;;;;9.57;100.00;100899.00;4844987;29;20049;-89
2022/10/06 01:45:29;;;;;;;19.60;2.50;;;;;;;9.61;100.00;100900.41;4843799;29;20073;-91
2022/10/06 01:47:57;;;;;;;14.40;2.28;;;;;;;9.64;100.00;100903.66;4866275;29;20427;-91
2022/10/06 01:50:28;;;;;;;15.85;2.63;;;;;;;9.70;100.00;100896.19;4844571;29;20034;-92
2022/10/06 01:52:57;;;;;;;17.92;2.25;;;;;;;9.75;100.00;100894.84;4841248;29;20372;-92
2022/10/06 01:55:25;;;;;;;20.65;2.78;;;;;;;9.81;100.00;100893.47;4860013;29;20041;-90
2022/10/06 01:57:55;;;;;;;21.55;2.55;;;;;;;9.87;100.00;100890.34;4844630;29;20043;-91
2022/10/06 02:00:23;;;;;;;16.98;3.17;;;;;;;9.92;100.00;100879.41;4837941;29;20049;-91
2022/10/06 02:02:51;;;;;;;19.33;3.28;;;;;;;9.99;100.00;100884.97;4833215;29;20045;-89
2022/10/06 02:05:20;;;;;;;22.15;2.95;;;;;;;10.01;100.00;100888.34;4859827;29;20030;-89
2022/10/06 02:07:50;;;;;;;14.75;2.53;;;;;;;10.03;100.00;100887.22;4833225;29;20041;-91
2022/10/06 02:10:19;;;;;;;12.02;2.42;;;;;;;10.08;100.00;100881.56;4858508;29;20398;-91
2022/10/06 02:12:51;;;;;;;22.55;2.67;;;;;;;10.13;100.00;100887.28;4844879;29;20065;-89
2022/10/06 02:15:21;;;;;;;20.92;3.28;;;;;;;10.16;100.00;100878.28;4857949;29;20034;-88
2022/10/06 02:17:48;;;;;;;14.18;2.17;;;;;;;10.19;100.00;100888.59;4863327;29;20063;-90
2022/10/06 02:20:16;;;;;;;25.90;2.75;;;;;;;10.24;100.00;100886.38;4829252;29;20038;-92
2022/10/06 02:22:44;;;;;;;19.73;3.33;;;;;;;10.26;100.00;100879.16;4834110;29;20068;-90
2022/10/06 02:25:12;;;;;;;20.80;2.60;;;;;;;10.32;100.00;100877.78;4837329;29;20098;-90
2022/10/06 02:27:40;;;;;;;23.77;2.53;;;;;;;10.34;100.00;100882.94;4831611;29;20038;-88
2022/10/06 02:30:11;;;;;;;20.58;3.22;;;;;;;10.39;100.00;100880.75;4831364;29;20387;-92
2022/10/06 02:32:41;;;;;;;21.33;3.33;;;;;;;10.39;100.00;100865.75;4833259;29;20038;-90
2022/10/06 02:35:14;;;;;;;14.57;1.92;;;;;;;10.41;100.00;100870.91;4843250;29;20029;-89
2022/10/06 02:37:42;;;;;;;20.38;2.20;;;;;;;10.39;100.00;100863.09;4854157;29;20129;-91
2022/10/06 02:40:15;;;;;;;19.58;2.28;;;;;;;10.37;100.00;100867.66;4836816;29;20046;-90
2022/10/06 02:42:47;;;;;;;19.23;2.55;;;;;;;10.36;100.00;100868.66;4831881;29;20084;-90
2022/10/06 02:45:19;;;;;;;21.60;2.63;;;;;;;10.34;100.00;100860.00;4859543;29;20045;-87
2022/10/06 02:47:47;;;;;;;18.17;2.00;;;;;;;10.32;100.00;100867.22;4882549;29;20121;-89
2022/10/06 02:50:16;;;;;;;16.38;2.30;;;;;;;10.32;100.00;100869.88;4844023;29;20045;-89
2022/10/06 02:52:45;;;;;;;17.63;2.47;;;;;;;10.34;100.00;100875.00;4865187;29;20040;-91
2022/10/06 02:55:14;;;;;;;20.15;2.45;;;;;;;10.37;100.00;100866.81;4843119;29;20034;-92
2022/10/06 02:57:42;;;;;;;18.65;2.45;;;;;;;10.39;100.00;100865.75;4863245;29;20140;-93
2022/10/06 03:00:11;;;;;;;13.95;2.20;;;;;;;10.41;100.00;100869.09;4829576;29;20072;-90
2022/10/06 03:02:39;;;;;;;19.77;2.40;;;;;;;10.41;100.00;100865.59;4826241;29;20388;-91
2022/10/06 03:05:07;;;;;;;16.02;2.00;;;;;;;10.42;100.00;100875.19;4827859;29;20037;-90
2022/10/06 03:07:34;;;;;;;24.58;2.90;;;;;;;10.41;100.00;100865.59;4869151;29;20105;-92
2022/10/06 03:10:03;;;;;;;27.40;2.45;;;;;;;10.45;100.00;100872.28;4829176;29;20250;-91
2022/10/06 03:12:33;;;;;;;14.73;2.47;;;;;;;10.46;100.00;100866.09;4843754;29;20033;-92
2022/10/06 03:15:02;;;;;;;18.15;2.60;;;;;;;10.48;100.00;100863.31;4850625;29;20042;-90
2022/10/06 03:17:30;;;;;;;20.35;3.30;;;;;;;10.49;100.00;100860.53;4848987;29;20029;-92
2022/10/06 03:19:58;;;;;;;24.02;2.67;;;;;;;10.54;100.00;100857.50;4842118;29;20037;-92
2022/10/06 03:22:26;;;;;;;13.98;2.53;;;;;;;10.58;100.00;100855.38;4866073;29;20053;-91
2022/10/06 03:24:57;;;;;;;15.88;2.20;;;;;;;10.62;100.00;100846.25;4859088;29;20033;-93
2022/10/06 03:27:26;;;;;;;21.88;2.78;;;;;;;10.64;100.00;100850.41;4836568;29;20040;-90
2022/10/06 03:29:59;;;;;;;16.65;2.45;;;;;;;10.69;100.00;100854.47;4830003;29;20144;-90
2022/10/06 03:32:30;;;;;;;25.27;2.72;;;;;;;10.72;100.00;100852.38;4830323;29;20041;-91
2022/10/06 03:34:58;;;;;;;20.92;2.13;;;;;;;10.76;100.00;100847.66;4831935;29;20046;-91
2022/10/06 03:37:27;;;;;;;16.95;2.53;;;;;;;10.82;100.00;100849.75;4853629;29;20029;-90
2022/10/06 03:39:55;;;;;;;18.88;3.00;;;;;;;10.85;100.00;100852.13;4850151;29;20045;-93
2022/10/06 03:42:26;;;;;;;13.30;2.15;;;;;;;10.91;100.00;100848.09;4845116;29;20037;-93
2022/10/06 03:44:56;;;;;;;20.00;2.22;;;;;;;10.95;100.00;100852.16;4845771;29;20108;-93
2022/10/06 03:47:28;;;;;;;17.73;3.42;;;;;;;10.97;100.00;100850.22;4846306;29;20037;-93
2022/10/06 03:49:59;;;;;;;15.95;2.70;;;;;;;11.03;100.00;100844.38;4837982;29;20090;-92
2022/10/06 03:52:28;;;;;;;19.55;2.80;;;;;;;11.11;100.00;100853.44;4833215;29;21032;-92
2022/10/06 03:54:56;;;;;;;15.50;2.22;;;;;;;11.13;100.00;100854.13;4833106;29;20116;-86
2022/10/06 03:57:24;;;;;;;16.50;2.05;;;;;;;11.18;100.00;100861.66;4826793;29;20733;-92
2022/10/06 03:59:53;;;;;;;20.27;2.63;;;;;;;11.18;100.00;100867.75;4846992;29;20041;-94
2022/10/06 04:02:21;;;;;;;17.10;2.58;;;;;;;11.18;100.00;100877.53;4853205;29;20036;-93
2022/10/06 04:04:49;;;;;;;15.23;2.63;;;;;;;11.14;100.00;100879.59;4850443;29;20041;-94
2022/10/06 04:07:19;;;;;;;16.45;3.17;;;;;;;11.13;100.00;100883.25;4833237;29;20475;-91
2022/10/06 04:09:48;;;;;;;21.85;2.90;;;;;;;11.10;100.00;100886.97;4845967;29;20034;-91
2022/10/06 04:12:17;;;;;;;10.65;1.92;;;;;;;11.06;100.00;100888.22;4862375;29;20033;-93
2022/10/06 04:14:44;;;;;;;17.20;2.35;;;;;;;11.04;100.00;100893.66;4832677;29;20097;-93
2022/10/06 04:17:13;;;;;;;16.50;1.83;;;;;;;11.00;100.00;100899.34;4848347;29;20124;-92
2022/10/06 04:19:42;;;;;;;24.83;2.70;;;;;;;10.97;100.00;100903.13;4853543;29;20048;-92
2022/10/06 04:22:14;;;;;;;17.70;2.42;;;;;;;10.91;100.00;100908.94;4847274;29;20101;-92
2022/10/06 04:24:42;;;;;;;22.23;2.08;;;;;;;10.92;100.00;100908.78;4825626;29;20053;-93
2022/10/06 04:27:26;;;;;;;20.55;2.45;;;;;;;10.88;100.00;100920.63;4859205;29;20038;-93
2022/10/06 04:30:07;;;;;;;15.48;2.25;;;;;;;10.90;100.00;100926.63;4832369;29;20033;-92
2022/10/06 04:32:37;;;;;;;18.70;3.00;;;;;;;10.85;100.00;100927.97;4830824;29;20535;-93
2022/10/06 04:35:04;;;;;;;18.40;2.40;;;;;;;10.88;100.00;100931.19;4829061;29;20048;-84
2022/10/06 04:37:33;;;;;;;16.23;2.72;;;;;;;10.81;100.00;100927.44;4846102;29;20045;-86
2022/10/06 04:40:01;;;;;;;14.32;2.53;;;;;;;10.84;100.00;100927.16;4835864;29;20044;-91
2022/10/06 04:42:31;;;;;;;18.40;2.85;;;;;;;10.83;100.00;100930.75;4855148;29;20030;-92
2022/10/06 04:44:58;;;;;;;16.85;2.13;;;;;;;10.87;100.00;100923.41;4839396;29;20125;-91
2022/10/06 04:47:27;;;;;;;16.75;2.10;;;;;;;10.84;100.00;100931.59;4848508;29;20053;-94
2022/10/06 04:49:55;;;;;;;16.40;2.53;;;;;;;10.81;100.00;100929.22;4862631;29;20037;-93
2022/10/06 04:52:23;;;;;;;20.25;3.10;;;;;;;10.79;100.00;100927.56;4842760;29;20132;-89
2022/10/06 04:54:51;;;;;;;17.77;2.45;;;;;;;10.84;100.00;100929.81;4830931;29;20073;-91
2022/10/06 04:57:20;;;;;;;20.50;2.92;;;;;;;10.83;100.00;100927.28;4840940;29;20081;-92
2022/10/06 05:02:35;;;;;;;21.17;3.63;;;;;;;10.82;100.00;100922.97;4871378;29;20051;-90
2022/10/06 05:05:03;;;;;;;16.80;2.63;;;;;;;10.86;100.00;100927.03;4830994;29;20065;-91
2022/10/06 05:07:32;;;;;;;21.05;2.08;;;;;;;10.89;100.00;100934.69;4847996;29;20029;-94
2022/10/06 05:10:00;;;;;;;16.92;2.53;;;;;;;10.92;100.00;100931.78;4851848;29;20166;-94
2022/10/06 05:12:30;;;;;;;16.98;2.72;;;;;;;10.91;100.00;100932.72;4846162;29;20064;-93
2022/10/06 05:14:58;;;;;;;20.02;2.38;;;;;;;10.96;100.00;100927.88;4875561;29;20049;-94
2022/10/06 05:17:27;;;;;;;19.90;2.65;;;;;;;10.96;100.00;100919.94;4866736;29;20034;-93
2022/10/06 05:19:55;;;;;;;27.48;2.75;;;;;;;10.98;100.00;100923.31;4845930;29;20102;-94
2022/10/06 05:22:23;;;;;;;18.30;2.30;;;;;;;10.96;100.00;100927.06;4860415;29;20060;-93
2022/10/06 05:24:52;;;;;;;18.42;2.28;;;;;;;11.00;100.00;100923.16;4846173;29;20384;-91
2022/10/06 05:27:20;;;;;;;23.73;2.72;;;;;;;10.98;100.00;100925.94;4861101;29;20048;-91
2022/10/06 05:29:49;;;;;;;15.85;2.95;;;;;;;11.03;100.00;100933.47;4860763;29;20049;-92
2022/10/06 05:32:17;;;;;;;19.70;2.45;;;;;;;11.04;100.00;100921.91;4860832;29;20033;-95
2022/10/06 05:34:48;;;;;;;22.80;3.38;;;;;;;11.10;100.00;100929.31;4840465;29;20554;-92
2022/10/06 05:37:18;;;;;;;17.90;2.55;;;;;;;11.08;100.00;100923.34;4848611;29;20045;-92
2022/10/06 05:39:48;;;;;;;15.77;2.63;;;;;;;11.12;100.00;100921.22;4859009;29;20048;-92
2022/10/06 05:42:18;;;;;;;21.92;2.30;;;;;;;11.16;100.00;100930.59;4845939;29;20033;-92
2022/10/06 05:44:47;;;;;;;20.98;2.40;;;;;;;11.19;100.00;100925.03;4847088;29;20042;-94
2022/10/06 05:47:15;;;;;;;25.77;3.58;;;;;;;11.14;100.00;100929.88;4842154;29;20046;-92
2022/10/06 05:49:44;;;;;;;17.50;2.42;;;;;;;11.17;100.00;100926.97;4857752;29;20041;-92
2022/10/06 05:52:12;;;;;;;24.05;2.97;;;;;;;11.14;100.00;100919.28;4828005;29;20597;-93
2022/10/06 05:54:40;;;;;;;19.83;2.60;;;;;;;11.19;100.00;100925.03;4831229;29;20100;-94
2022/10/06 05:57:09;;;;;;;19.67;2.58;;;;;;;11.21;100.00;100923.06;4844662;29;20395;-93
2022/10/06 05:59:43;;;;;;;25.63;3.08;;;;;;;11.27;100.00;100927.81;4827817;29;20041;-92
2022/10/06 06:02:13;;;;;;;15.10;2.40;;;;;;;11.29;100.00;100927.69;4826513;29;20361;-93
2022/10/06 06:04:43;;;;;;;18.80;2.70;;;;;;;11.30;100.00;100926.69;4823954;29;20046;-94
2022/10/06 06:07:11;;;;;;;17.48;2.80;;;;;;;11.35;100.00;100926.28;4827541;29;20490;-93
2022/10/06 06:09:42;;;;;;;25.25;2.72;;;;;;;11.37;100.00;100930.47;4828223;29;20063;-92
2022/10/06 06:12:11;;;;;;;20.33;2.53;;;;;;;11.42;100.00;100924.75;4855743;29;20030;-92
2022/10/06 06:17:41;;;;;;;16.15;1.88;;;;;;;11.37;100.00;100925.16;4860459;29;20063;-93
2022/10/06 06:20:10;;;;;;;24.20;2.72;;;;;;;11.37;100.00;100933.09;4829511;29;20029;-91
2022/10/06 06:22:39;;;;;;;14.05;2.08;;;;;;;11.37;100.00;100929.66;4837839;29;20054;-94
2022/10/06 06:25:07;;;;;;;22.02;3.20;;;;;;;11.39;100.00;100943.56;4845647;29;20038;-91
2022/10/06 06:27:39;;;;;;;19.48;2.72;;;;;;;11.37;100.00;100935.75;4856236;29;20156;-93
2022/10/06 06:30:09;;;;;;;16.83;2.40;;;;;;;11.35;100.00;100945.66;4830543;29;20045;-92
2022/10/06 06:32:37;;;;;;;25.77;2.45;;;;;;;11.33;100.00;100944.97;4833150;29;20033;-93
2022/10/06 06:35:06;;;;;;;24.95;2.70;;;;;;;11.39;100.00;100948.84;4829448;29;20056;-92
2022/10/06 06:37:34;;;;;;;20.65;2.28;;;;;;;11.35;100.00;100948.31;4829858;29;20087;-92
2022/10/06 06:40:03;;;;;;;19.70;2.78;;;;;;;11.36;100.00;100947.31;4845819;29;20049;-91
2022/10/06 06:42:35;;;;;;;20.90;3.00;;;;;;;11.38;100.00;100966.56;4854159;29;20029;-92
2022/10/06 06:45:31;;;;;;;18.25;2.75;;;;;;;11.37;100.00;100964.88;4873678;29;20047;-92
2022/10/06 06:48:04;;;;;;;20.35;3.08;;;;;;;11.37;100.00;100972.00;4845546;29;20038;-92
2022/10/06 06:50:35;;;;;;;17.85;2.40;;;;;;;11.38;100.00;100971.84;4834287;29;20494;-93
2022/10/06 06:53:06;;;;;;;15.98;1.92;;;;;;;11.38;100.00;100973.66;4829423;29;20033;-92
2022/10/06 06:55:49;;;;;;;17.65;2.28;;;;;;;11.36;100.00;100980.88;4845831;29;20090;-93
2022/10/06 06:58:20;;;;;;;21.58;2.20;;;;;;;11.39;100.00;100986.75;4830469;29;20491;-91
2022/10/06 07:00:51;;;;;;;20.27;2.25;;;;;;;11.35;100.00;100988.00;4832224;29;21269;-90
2022/10/06 07:03:21;;;;;;;15.82;2.10;;;;;;;11.40;100.00;100996.34;4841792;29;20076;-94
2022/10/06 07:05:51;;;;;;;20.40;3.45;;;;;;;11.41;100.00;100990.13;4859894;29;20037;-92
2022/10/06 07:08:21;;;;;;;17.98;3.13;;;;;;;11.44;100.00;100988.16;4861504;29;20033;-93
2022/10/06 07:10:50;;;;;;;17.52;2.22;;;;;;;11.45;100.00;100988.00;4859963;29;20045;-93
2022/10/06 07:13:19;;;;;;;13.60;1.98;;;;;;;11.51;100.00;100998.06;4849850;29;20037;-93
2022/10/06 07:26:57;;;;;;;;;;;;;;;11.72;100.00;100980.41;4851100;29;20045;-92
2022/10/06 07:29:26;;;;;;;14.50;2.22;;;;;;;11.81;100.00;100989.31;4834523;29;20364;-93
2022/10/06 07:31:54;;;;;;;17.33;2.20;;;;;;;11.82;100.00;100991.00;4845175;29;20061;-92
2022/10/06 07:34:23;;;;;;;15.80;1.95;;;;;;;11.86;100.00;100992.38;4832987;29;20119;-92
2022/10/06 07:36:53;;;;;;;18.02;3.08;;;;;;;11.88;100.00;100988.59;4840005;29;20045;-93
2022/10/06 07:39:23;;;;;;;18.35;3.03;;;;;;;11.91;100.00;100992.81;4804295;29;20065;-91
2022/10/06 07:41:53;;;;;;;11.70;2.30;;;;;;;11.90;100.00;100996.41;4843622;29;20038;-93
2022/10/06 07:44:25;;;;;;;18.27;2.22;;;;;;;11.90;100.00;100994.63;4852683;29;20067;-93
2022/10/06 07:46:54;;;;;;;15.57;2.45;;;;;;;11.94;100.00;101008.44;4833057;29;20048;-92
2022/10/06 07:49:34;;;;;;;18.77;2.42;;;;;;;11.93;100.00;100987.38;4829598;29;20042;-94
2022/10/06 07:52:03;;;;;;;12.43;1.92;;;;;;;11.94;100.00;100994.31;4862708;29;20037;-92
2022/10/06 07:54:32;;;;;;;12.77;1.83;;;;;;;11.95;100.00;100996.84;4847786;29;20033;-93
2022/10/06 07:57:34;;;;;;;16.17;2.28;;;;;;;11.98;100.00;100998.34;4855126;29;20048;-93
2022/10/06 08:00:04;;;;;;;13.45;2.47;;;;;;;11.98;100.00;101004.50;4847273;29;20033;-93
2022/10/06 08:02:38;;;;;;;12.75;1.90;;;;;;;12.04;100.00;101001.28;4861559;29;20038;-93
2022/10/06 08:05:07;;;;;;;12.30;1.70;;;;;;;12.11;100.00;101000.75;4844364;29;20100;-93
2022/10/06 08:07:35;;;;;;;11.57;1.55;;;;;;;12.14;100.00;101000.47;4842901;29;20531;-94
2022/10/06 08:10:03;;;;;;;19.23;3.05;;;;;;;12.19;100.00;101002.72;4832145;29;20051;-90
2022/10/06 08:12:36;;;;;;;10.05;1.92;;;;;;;12.26;100.00;101012.59;4847274;29;20093;-93
2022/10/06 08:15:10;;;;;;;14.00;1.88;;;;;;;12.34;100.00;101001.28;4840061;29;20375;-93
2022/10/06 08:17:40;;;;;;;8.82;1.48;;;;;;;12.50;100.00;101013.97;4846670;29;20043;-92
2022/10/06 08:20:11;;;;;;;12.00;1.67;;;;;;;12.57;100.00;101022.19;4831264;29;20044;-92
2022/10/06 08:22:42;;;;;;;8.02;1.48;;;;;;;12.63;100.00;101015.44;4847503;29;20054;-92
2022/10/06 08:25:11;;;;;;;15.32;1.98;;;;;;;12.67;100.00;101013.38;4836452;29;21418;-95
2022/10/06 08:27:42;;;;;;;9.48;1.80;;;;;;;12.70;100.00;101018.38;4849934;29;20052;-95
2022/10/06 08:30:12;;;;;;;14.27;2.25;;;;;;;12.75;100.00;101019.63;4844873;29;20048;-95
2022/10/06 08:32:41;;;;;;;14.77;1.98;;;;;;;12.72;100.00;101019.94;4833397;29;20030;-93
2022/10/06 08:35:11;;;;;;;9.63;1.80;;;;;;;12.75;100.00;101014.34;4833026;29;20444;-93
2022/10/06 08:37:42;;;;;;;10.30;1.25;;;;;;;12.79;100.00;101014.84;4844164;29;20105;-94
2022/10/06 08:40:14;;;;;;;5.40;1.20;;;;;;;12.82;100.00;101027.00;4841305;29;20082;-93
2022/10/06 08:42:52;;;;;;;8.52;1.60;;;;;;;12.86;100.00;101026.56;4844873;29;20088;-90
2022/10/06 08:45:43;;;;;;;7.88;1.73;;;;;;;12.84;100.00;101017.06;4831802;29;20038;-92
2022/10/06 08:48:25;;;;;;;7.90;1.10;;;;;;;12.85;100.00;101024.06;4841432;29;20391;-94
2022/10/06 08:51:22;;;;;;;12.68;1.20;;;;;;;12.93;100.00;101021.53;4846649;29;20124;-90
2022/10/06 08:54:28;;;;;;;6.70;1.27;;;;;;;12.99;100.00;101014.78;4855799;29;20041;-93
2022/10/06 08:57:46;;;;;;;9.18;0.77;;;;;;;13.03;100.00;101024.97;4845771;29;20041;-92
2022/10/06 09:00:17;;;;;;;2.55;0.60;;;;;;;13.11;100.00;101020.72;4836146;29;20050;-90
2022/10/06 09:02:48;;;;;;;2.35;0.45;;;;;;;13.18;100.00;101019.19;4835516;29;20136;-90
2022/10/06 09:05:24;;;;;;;3.22;0.40;;;;;;;13.22;100.00;101012.59;4854167;29;20407;-92
2022/10/06 09:08:15;;;;;;;4.95;0.65;;;;;;;13.29;100.00;101020.78;4843063;29;20045;-90
2022/10/06 09:11:13;;;;;;;3.65;0.63;;;;;;;13.32;100.00;101019.66;4844847;29;20101;-91
2022/10/06 09:13:52;;;;;;;3.97;0.75;;;;;;;13.38;100.00;101019.91;4844089;29;20046;-91
2022/10/06 09:16:29;;;;;;;6.47;0.90;;;;;;;13.42;100.00;101020.44;4827855;29;20026;-93
2022/10/06 09:19:16;;;;;;;8.98;1.23;;;;;;;13.44;100.00;101015.81;4834821;29;20034;-92
2022/10/06 09:21:51;;;;;;;3.67;0.80;;;;;;;13.50;100.00;101027.66;4845861;29;20045;-92
2022/10/06 09:24:34;;;;;;;6.72;1.13;;;;;;;13.56;100.00;101029.75;4845927;29;20077;-93
2022/10/06 09:27:16;;;;;;;5.72;1.17;;;;;;;13.63;100.00;101030.81;4833920;29;20050;-92
2022/10/06 09:29:47;;;;;;;6.65;1.30;;;;;;;13.69;100.00;101026.75;4861382;29;20041;-91
2022/10/06 09:32:22;;;;;;;8.85;1.20;;;;;;;13.81;100.00;101023.88;4827881;29;20046;-93
2022/10/06 09:34:55;;;;;;;5.45;0.82;;;;;;;13.89;100.00;101022.09;4846629;29;20037;-93
2022/10/06 09:37:26;;;;;;;10.80;1.60;;;;;;;13.99;100.00;101039.78;4830737;29;20327;-92
2022/10/06 09:39:55;;;;;;;10.27;1.30;;;;;;;14.14;100.00;101040.09;4846547;29;20045;-91
2022/10/06 09:42:34;;;;;;;6.15;1.17;;;;;;;14.22;100.00;101036.69;4828226;29;20045;-94
2022/10/06 09:45:06;;;;;;;6.53;0.98;;;;;;;14.31;100.00;101042.88;4861580;29;20037;-92
2022/10/06 09:47:44;;;;;;;10.80;1.50;;;;;;;14.38;100.00;101046.63;4846139;29;20038;-91
2022/10/06 09:50:23;;;;;;;11.52;1.95;;;;;;;14.37;100.00;101027.16;4837428;29;20037;-91
2022/10/06 09:53:02;;;;;;;11.95;1.80;;;;;;;14.41;100.00;101029.50;4844473;29;20128;-92
2022/10/06 09:55:38;;;;;;;10.60;1.60;;;;;;;14.36;100.00;101041.44;4844689;29;20506;-90
2022/10/06 09:58:16;;;;;;;;;;;;;;;14.30;100.00;101035.91;4832987;29;20478;-88
2022/10/06 10:01:02;;;;;;;13.60;2.10;;;;;;;14.41;100.00;101032.16;4846275;29;19908;-94
2022/10/06 10:03:43;;;;;;;12.60;2.30;;;;;;;14.48;100.00;101036.69;4846619;29;20114;-91
2022/10/06 10:06:28;;;;;;;17.30;2.78;;;;;;;14.61;100.00;101030.13;4843196;29;20069;-89
2022/10/06 10:09:16;;;;;;;14.93;2.53;;;;;;;14.73;100.00;101041.34;4848067;29;20059;-91
2022/10/06 10:14:37;;;;;;;11.88;1.65;;;;;;;14.84;100.00;101046.41;4861228;29;20040;-90
2022/10/06 10:17:19;;;;;;;14.45;2.55;;;;;;;14.84;100.00;101045.59;4879228;29;20092;-93
2022/10/06 10:19:52;;;;;;;15.55;2.20;;;;;;;14.81;100.00;101049.41;4859072;29;20075;-92
2022/10/06 10:22:40;;;;;;;16.23;2.60;;;;;;;14.82;100.00;101036.94;4867365;29;20064;-92
2022/10/06 10:25:28;;;;;;;16.65;2.60;;;;;;;14.83;100.00;101047.41;4853354;29;20029;-90
2022/10/06 10:28:17;;;;;;;13.50;2.55;;;;;;;14.82;100.00;101044.91;4842669;29;20487;-91
2022/10/06 10:31:10;;;;;;;19.67;3.58;;;;;;;14.82;100.00;101043.09;4860449;29;20101;-91
2022/10/06 10:34:02;;;;;;;14.02;2.40;;;;;;;14.85;100.00;101049.94;4851247;29;20045;-90
2022/10/06 10:36:40;;;;;;;12.10;2.30;;;;;;;14.83;100.00;101051.91;4851279;29;20029;-90
2022/10/06 10:39:34;;;;;;;12.48;1.98;;;;;;;14.80;100.00;101049.56;4845233;29;20474;-88
2022/10/06 10:42:14;;;;;;;12.43;1.90;;;;;;;14.78;100.00;101039.03;4865674;29;20109;-90
2022/10/06 10:44:57;;;;;;;13.00;1.52;;;;;;;14.82;100.00;101059.06;4842148;29;20037;-89
2022/10/06 10:47:37;;;;;;;12.63;1.42;;;;;;;14.83;100.00;101043.91;4829760;29;20041;-89
2022/10/06 10:50:19;;;;;;;7.60;1.63;;;;;;;14.88;100.00;101041.63;4829491;29;20150;-90
2022/10/06 10:52:50;;;;;;;12.65;1.75;;;;;;;14.94;100.00;101034.84;4859886;29;20056;-90
2022/10/06 10:55:43;;;;;;;13.15;1.77;;;;;;;15.08;100.00;101031.56;4858284;29;20041;-89
2022/10/06 10:58:49;;;;;;;10.55;1.65;;;;;;;15.22;100.00;101030.16;4828819;29;20037;-90
2022/10/06 11:01:36;;;;;;;;;;;;;;;15.22;100.00;101027.50;4859743;29;20208;-90
2022/10/06 11:04:12;;;;;;;8.40;1.70;;;;;;;15.35;100.00;101020.88;4849130;29;19916;-89
2022/10/06 11:07:14;;;;;;;11.77;1.63;;;;;;;15.49;100.00;101017.59;4830899;29;20506;-88
2022/10/06 11:09:58;;;;;;;10.35;2.30;;;;;;;15.60;100.00;101005.78;4866095;29;20049;-90
2022/10/06 11:12:27;;;;;;;10.65;1.95;;;;;;;15.62;100.00;101018.94;4855247;29;20057;-90
2022/10/06 11:15:05;;;;;;;11.98;1.55;;;;;;;15.67;100.00;101008.59;4874567;29;20041;-91
2022/10/06 11:17:43;;;;;;;15.75;2.60;;;;;;;15.66;100.00;101003.44;4859251;29;20052;-90
2022/10/06 11:20:43;;;;;;;12.90;1.67;;;;;;;15.62;100.00;101008.28;4859361;29;20034;-91
2022/10/06 11:23:45;;;;;;;12.63;2.30;;;;;;;15.63;100.00;101008.13;4853350;29;20054;-90
2022/10/06 11:26:40;;;;;;;11.10;1.48;;;;;;;15.60;100.00;101007.59;4858751;29;20406;-90
2022/10/06 11:29:18;;;;;;;8.80;1.90;;;;;;;15.50;100.00;100999.75;4844528;29;20110;-90
2022/10/06 11:32:00;;;;;;;11.98;2.20;;;;;;;15.46;100.00;101007.25;4859391;29;20037;-90
2022/10/06 11:34:31;;;;;;;7.68;1.70;;;;;;;15.38;100.00;101004.56;4841049;29;20046;-90
2022/10/06 11:37:17;;;;;;;8.95;1.92;;;;;;;15.29;100.00;100995.69;4843873;29;20037;-90
2022/10/06 11:40:04;;;;;;;8.35;1.45;;;;;;;15.24;100.00;101003.34;4858168;29;20124;-91
2022/10/06 11:42:43;;;;;;;10.57;1.20;;;;;;;15.17;100.00;101005.81;4818037;29;20478;-89
2022/10/06 11:45:15;;;;;;;5.00;0.90;;;;;;;15.16;100.00;101000.66;4843740;29;20041;-91
2022/10/06 11:47:54;;;;;;;10.45;1.48;;;;;;;15.15;100.00;101001.63;4842572;29;20479;-91
2022/10/06 11:50:37;;;;;;;17.05;2.42;;;;;;;15.13;100.00;101002.63;4859639;29;20051;-90
2022/10/06 11:53:06;;;;;;;9.10;1.20;;;;;;;15.10;100.00;101000.31;4827589;29;20178;-91
2022/10/06 11:55:35;;;;;;;8.32;1.25;;;;;;;15.07;100.00;100994.44;4830731;29;20038;-90
2022/10/06 11:58:12;;;;;;;10.80;1.27;;;;;;;15.04;100.00;100984.97;4846830;29;20041;-92
2022/10/06 12:00:45;;;;;;;8.27;1.52;;;;;;;14.99;100.00;100987.28;4830339;29;20076;-90